createdAt,value
2023-05-16T00:00:53.332Z,16.34
2023-05-16T00:01:57.587Z,16.33
2023-05-16T00:03:01.170Z,16.34
2023-05-16T00:04:05.155Z,16.34
2023-05-16T00:05:10.992Z,16.34
2023-05-16T00:06:16.388Z,16.35
2023-05-16T00:07:19.382Z,16.34
2023-05-16T00:08:23.139Z,16.32
2023-05-16T00:09:26.277Z,16.31
2023-05-16T00:10:29.713Z,16.28
2023-05-16T00:11:33.658Z,16.27
2023-05-16T00:12:37.958Z,16.22
2023-05-16T00:13:42.524Z,16.14
2023-05-16T00:14:46.142Z,16.10
2023-05-16T00:15:48.744Z,16.04
2023-05-16T00:16:53.495Z,16.03
2023-05-16T00:17:58.854Z,16.00
2023-05-16T00:19:02.831Z,15.98
2023-05-16T00:20:08.093Z,15.96
2023-05-16T00:21:14.270Z,15.94
2023-05-16T00:22:18.478Z,15.90
2023-05-16T00:23:23.091Z,15.88
2023-05-16T00:24:25.973Z,15.85
2023-05-16T00:25:30.416Z,15.83
2023-05-16T00:26:33.122Z,15.83
2023-05-16T00:27:38.577Z,15.80
2023-05-16T00:28:41.595Z,15.77
2023-05-16T00:29:45.529Z,15.74
2023-05-16T00:30:48.576Z,15.73
2023-05-16T00:31:52.196Z,15.71
2023-05-16T00:32:56.310Z,15.73
2023-05-16T00:33:59.992Z,15.73
2023-05-16T00:35:02.864Z,15.74
2023-05-16T00:36:06.935Z,15.73
2023-05-16T00:37:11.114Z,15.76
2023-05-16T00:38:15.714Z,15.77
2023-05-16T00:39:18.516Z,15.78
2023-05-16T00:40:22.691Z,15.76
2023-05-16T00:41:26.430Z,15.77
2023-05-16T00:42:30.443Z,15.79
2023-05-16T00:43:34.658Z,15.80
2023-05-16T00:44:37.460Z,15.79
2023-05-16T00:45:41.323Z,15.78
2023-05-16T00:46:44.170Z,15.76
2023-05-16T00:47:47.899Z,15.72
2023-05-16T00:48:51.960Z,15.66
2023-05-16T00:49:55.602Z,15.62
2023-05-16T00:50:58.680Z,15.58
2023-05-16T00:52:02.959Z,15.52
2023-05-16T00:53:07.372Z,15.50
2023-05-16T00:54:13.436Z,15.49
2023-05-16T00:55:16.542Z,15.50
2023-05-16T00:56:20.237Z,15.46
2023-05-16T00:57:22.984Z,15.45
2023-05-16T00:58:26.980Z,15.42
2023-05-16T00:59:30.160Z,15.39
2023-05-16T01:00:36.385Z,15.35
2023-05-16T01:01:39.807Z,15.31
2023-05-16T01:02:44.011Z,15.26
2023-05-16T01:03:47.201Z,15.21
2023-05-16T01:04:51.961Z,15.18
2023-05-16T01:05:54.786Z,15.11
2023-05-16T01:06:58.738Z,15.04
2023-05-16T01:08:01.894Z,15.00
2023-05-16T01:09:08.630Z,14.93
2023-05-16T01:10:12.486Z,14.88
2023-05-16T01:11:24.550Z,14.83
2023-05-16T01:12:37.664Z,14.77
2023-05-16T01:13:50.981Z,14.71
2023-05-16T01:15:03.119Z,14.66
2023-05-16T01:16:15.102Z,14.64
2023-05-16T01:17:24.061Z,14.59
2023-05-16T01:18:39.402Z,14.59
2023-05-16T01:19:56.528Z,14.58
2023-05-16T01:21:04.188Z,14.56
2023-05-16T01:22:16.659Z,14.55
2023-05-16T01:23:34.815Z,14.51
2023-05-16T01:24:52.236Z,14.48
2023-05-16T01:26:00.157Z,14.44
2023-05-16T01:27:07.401Z,14.42
2023-05-16T01:28:11.261Z,14.42
2023-05-16T01:29:16.122Z,14.42
2023-05-16T01:30:20.006Z,14.44
2023-05-16T01:31:25.048Z,14.44
2023-05-16T01:32:28.847Z,14.45
2023-05-16T01:33:32.707Z,14.46
2023-05-16T01:34:35.599Z,14.45
2023-05-16T01:35:45.489Z,14.46
2023-05-16T01:36:58.565Z,14.47
2023-05-16T01:38:11.643Z,14.47
2023-05-16T01:39:20.346Z,14.46
2023-05-16T01:40:31.524Z,14.46
2023-05-16T01:41:42.460Z,14.45
2023-05-16T01:42:50.300Z,14.42
2023-05-16T01:43:59.274Z,14.39
2023-05-16T01:45:12.763Z,14.37
2023-05-16T01:46:19.407Z,14.35
2023-05-16T01:47:27.944Z,14.35
2023-05-16T01:48:36.282Z,14.35
2023-05-16T01:49:47.797Z,14.35
2023-05-16T01:50:55.759Z,14.32
2023-05-16T01:52:07.172Z,14.28
2023-05-16T01:53:18.206Z,14.22
2023-05-16T01:54:25.264Z,14.15
2023-05-16T01:55:44.160Z,14.10
2023-05-16T01:56:54.557Z,14.03
2023-05-16T01:58:00.998Z,13.96
2023-05-16T01:59:04.896Z,13.93
2023-05-16T02:00:10.400Z,13.90
2023-05-16T02:01:14.649Z,13.90
2023-05-16T02:02:21.444Z,13.87
2023-05-16T02:03:24.415Z,13.83
2023-05-16T02:04:28.349Z,13.79
2023-05-16T02:05:31.610Z,13.76
2023-05-16T02:06:35.435Z,13.77
2023-05-16T02:07:39.804Z,13.75
2023-05-16T02:08:43.992Z,13.72
2023-05-16T02:09:47.004Z,13.70
2023-05-16T02:10:50.603Z,13.69
2023-05-16T02:11:53.476Z,13.67
2023-05-16T02:12:57.400Z,13.67
2023-05-16T02:14:01.854Z,13.69
2023-05-16T02:15:06.795Z,13.68
2023-05-16T02:16:11.728Z,13.67
2023-05-16T02:17:15.819Z,13.64
2023-05-16T02:18:19.808Z,13.63
2023-05-16T02:19:24.084Z,13.63
2023-05-16T02:20:27.516Z,13.60
2023-05-16T02:21:31.660Z,13.53
2023-05-16T02:22:34.883Z,13.47
2023-05-16T02:23:39.627Z,13.42
2023-05-16T02:24:42.731Z,13.39
2023-05-16T02:25:46.688Z,13.36
2023-05-16T02:26:49.844Z,13.32
2023-05-16T02:27:53.834Z,13.30
2023-05-16T02:28:56.657Z,13.30
2023-05-16T02:30:01.861Z,13.31
2023-05-16T02:31:05.494Z,13.29
2023-05-16T02:32:09.551Z,13.27
2023-05-16T02:33:13.163Z,13.22
2023-05-16T02:34:17.074Z,13.21
2023-05-16T02:35:19.648Z,13.18
2023-05-16T02:36:23.566Z,13.18
2023-05-16T02:37:26.244Z,13.14
2023-05-16T02:38:31.359Z,13.11
2023-05-16T02:39:34.429Z,13.05
2023-05-16T02:40:38.305Z,13.05
2023-05-16T02:41:41.030Z,13.05
2023-05-16T02:42:44.647Z,13.06
2023-05-16T02:43:48.041Z,13.06
2023-05-16T02:44:52.483Z,13.06
2023-05-16T02:45:56.656Z,13.05
2023-05-16T02:47:00.251Z,13.06
2023-05-16T02:48:03.521Z,13.10
2023-05-16T02:49:08.040Z,13.12
2023-05-16T02:50:11.206Z,13.12
2023-05-16T02:51:15.038Z,13.12
2023-05-16T02:52:17.617Z,13.14
2023-05-16T02:53:21.383Z,13.15
2023-05-16T02:54:24.746Z,13.16
2023-05-16T02:55:28.768Z,13.16
2023-05-16T02:56:31.585Z,13.17
2023-05-16T02:57:35.725Z,13.19
2023-05-16T02:58:38.589Z,13.21
2023-05-16T02:59:43.190Z,13.21
2023-05-16T03:00:49.582Z,13.21
2023-05-16T03:02:00.777Z,13.23
2023-05-16T03:03:08.085Z,13.24
2023-05-16T03:04:19.369Z,13.24
2023-05-16T03:05:27.562Z,13.25
2023-05-16T03:06:33.746Z,13.27
2023-05-16T03:07:45.951Z,13.29
2023-05-16T03:08:56.783Z,13.28
2023-05-16T03:10:05.717Z,13.27
2023-05-16T03:11:16.158Z,13.24
2023-05-16T03:12:21.184Z,13.25
2023-05-16T03:13:30.732Z,13.25
2023-05-16T03:14:38.433Z,13.26
2023-05-16T03:15:44.400Z,13.25
2023-05-16T03:16:48.494Z,13.25
2023-05-16T03:17:53.044Z,13.28
2023-05-16T03:18:58.026Z,13.27
2023-05-16T03:20:01.382Z,13.28
2023-05-16T03:21:05.598Z,13.27
2023-05-16T03:22:08.571Z,13.29
2023-05-16T03:23:12.373Z,13.27
2023-05-16T03:24:15.847Z,13.27
2023-05-16T03:25:19.854Z,13.27
2023-05-16T03:26:23.694Z,13.27
2023-05-16T03:27:28.945Z,13.28
2023-05-16T03:28:32.004Z,13.25
2023-05-16T03:29:36.965Z,13.22
2023-05-16T03:30:39.579Z,13.22
2023-05-16T03:31:43.773Z,13.22
2023-05-16T03:32:46.836Z,13.25
2023-05-16T03:33:51.988Z,13.26
2023-05-16T03:34:54.736Z,13.26
2023-05-16T03:35:59.154Z,13.26
2023-05-16T03:37:02.868Z,13.29
2023-05-16T03:38:05.694Z,13.30
2023-05-16T03:39:09.955Z,13.32
2023-05-16T03:40:13.523Z,13.35
2023-05-16T03:41:17.420Z,13.37
2023-05-16T03:42:20.301Z,13.38
2023-05-16T03:43:24.015Z,13.39
2023-05-16T03:44:27.141Z,13.39
2023-05-16T03:45:31.550Z,13.43
2023-05-16T03:46:35.498Z,13.45
2023-05-16T03:47:39.413Z,13.46
2023-05-16T03:48:41.896Z,13.45
2023-05-16T03:49:46.905Z,13.47
2023-05-16T03:50:51.719Z,13.49
2023-05-16T03:51:56.088Z,13.51
2023-05-16T03:52:59.703Z,13.53
2023-05-16T03:54:04.178Z,13.56
2023-05-16T03:55:08.670Z,13.58
2023-05-16T03:56:12.975Z,13.58
2023-05-16T03:57:16.423Z,13.60
2023-05-16T03:58:20.938Z,13.61
2023-05-16T03:59:23.978Z,13.61
2023-05-16T04:00:28.360Z,13.63
2023-05-16T04:01:31.389Z,13.65
2023-05-16T04:02:35.550Z,13.67
2023-05-16T04:03:40.444Z,13.67
2023-05-16T04:04:43.854Z,13.69
2023-05-16T04:05:48.877Z,13.71
2023-05-16T04:06:52.218Z,13.72
2023-05-16T04:07:55.969Z,13.74
2023-05-16T04:08:59.188Z,13.75
2023-05-16T04:10:03.208Z,13.80
2023-05-16T04:11:06.608Z,13.84
2023-05-16T04:12:10.848Z,13.87
2023-05-16T04:13:15.668Z,13.88
2023-05-16T04:14:19.702Z,13.89
2023-05-16T04:15:22.609Z,13.90
2023-05-16T04:16:26.346Z,13.93
2023-05-16T04:17:29.661Z,13.93
2023-05-16T04:18:33.793Z,13.94
2023-05-16T04:19:36.904Z,13.94
2023-05-16T04:20:43.224Z,13.92
2023-05-16T04:21:47.368Z,13.91
2023-05-16T04:22:51.206Z,13.90
2023-05-16T04:23:54.435Z,13.91
2023-05-16T04:24:58.512Z,13.91
2023-05-16T04:26:04.798Z,13.91
2023-05-16T04:27:09.427Z,13.92
2023-05-16T04:28:13.804Z,13.95
2023-05-16T04:29:18.569Z,13.96
2023-05-16T04:30:22.399Z,13.98
2023-05-16T04:31:27.081Z,14.02
2023-05-16T04:32:31.156Z,14.04
2023-05-16T04:33:34.776Z,14.07
2023-05-16T04:34:40.493Z,14.09
2023-05-16T04:35:45.668Z,14.12
2023-05-16T04:36:53.321Z,14.12
2023-05-16T04:37:57.354Z,14.13
2023-05-16T04:39:01.082Z,14.13
2023-05-16T04:40:08.789Z,14.16
2023-05-16T04:41:13.582Z,14.19
2023-05-16T04:42:18.774Z,14.22
2023-05-16T04:43:21.672Z,14.26
2023-05-16T04:44:25.516Z,14.29
2023-05-16T04:45:29.454Z,14.32
2023-05-16T04:46:33.808Z,14.35
2023-05-16T04:47:37.358Z,14.37
2023-05-16T04:48:41.159Z,14.40
2023-05-16T04:49:44.392Z,14.43
2023-05-16T04:50:48.350Z,14.46
2023-05-16T04:51:52.618Z,14.48
2023-05-16T04:52:56.608Z,14.50
2023-05-16T04:54:00.140Z,14.52
2023-05-16T04:55:04.631Z,14.55
2023-05-16T04:56:08.343Z,14.58
2023-05-16T04:57:12.779Z,14.60
2023-05-16T04:58:16.118Z,14.64
2023-05-16T04:59:20.325Z,14.66
2023-05-16T05:00:23.712Z,14.69
2023-05-16T05:01:28.076Z,14.73
2023-05-16T05:02:30.622Z,14.76
2023-05-16T05:03:36.145Z,14.80
2023-05-16T05:04:39.617Z,14.84
2023-05-16T05:05:43.329Z,14.87
2023-05-16T05:06:46.934Z,14.87
2023-05-16T05:07:52.992Z,14.89
2023-05-16T05:08:56.069Z,14.90
2023-05-16T05:09:59.939Z,14.91
2023-05-16T05:11:03.208Z,14.93
2023-05-16T05:12:08.887Z,14.95
2023-05-16T05:13:11.966Z,14.97
2023-05-16T05:14:15.735Z,14.98
2023-05-16T05:15:19.534Z,15.03
2023-05-16T05:16:23.459Z,15.06
2023-05-16T05:17:27.226Z,15.11
2023-05-16T05:18:31.478Z,15.13
2023-05-16T05:19:35.294Z,15.15
2023-05-16T05:20:39.287Z,15.16
2023-05-16T05:21:42.384Z,15.17
2023-05-16T05:22:47.208Z,15.18
2023-05-16T05:23:51.694Z,15.20
2023-05-16T05:24:56.024Z,15.22
2023-05-16T05:25:59.177Z,15.23
2023-05-16T05:27:03.579Z,15.23
2023-05-16T05:28:07.783Z,15.24
2023-05-16T05:29:11.313Z,15.24
2023-05-16T05:30:15.560Z,15.26
2023-05-16T05:31:19.170Z,15.26
2023-05-16T05:32:23.179Z,15.26
2023-05-16T05:33:28.777Z,15.27
2023-05-16T05:34:33.552Z,15.30
2023-05-16T05:35:36.176Z,15.32
2023-05-16T05:36:40.645Z,15.36
2023-05-16T05:37:43.238Z,15.39
2023-05-16T05:38:47.824Z,15.45
2023-05-16T05:39:52.142Z,15.52
2023-05-16T05:40:56.065Z,15.59
2023-05-16T05:41:59.210Z,15.65
2023-05-16T05:43:03.266Z,15.72
2023-05-16T05:44:07.247Z,15.77
2023-05-16T05:45:14.840Z,15.81
2023-05-16T05:46:19.291Z,15.85
2023-05-16T05:47:23.388Z,15.89
2023-05-16T05:48:26.647Z,15.95
2023-05-16T05:49:32.135Z,15.99
2023-05-16T05:50:35.164Z,16.00
2023-05-16T05:51:39.459Z,16.01
2023-05-16T05:52:43.153Z,16.01
2023-05-16T05:53:47.264Z,16.02
2023-05-16T05:54:51.651Z,16.03
2023-05-16T05:55:55.680Z,16.04
2023-05-16T05:57:00.478Z,16.06
2023-05-16T05:58:05.667Z,16.06
2023-05-16T05:59:11.088Z,16.06
2023-05-16T06:00:15.525Z,16.05
2023-05-16T06:01:21.428Z,16.05
2023-05-16T06:02:25.544Z,16.04
2023-05-16T06:03:30.072Z,16.05
2023-05-16T06:04:33.233Z,16.02
2023-05-16T06:05:37.516Z,16.01
2023-05-16T06:06:41.890Z,15.99
2023-05-16T06:07:44.696Z,15.98
2023-05-16T06:08:49.031Z,15.97
2023-05-16T06:09:53.284Z,15.95
2023-05-16T06:10:57.138Z,15.96
2023-05-16T06:12:00.653Z,15.95
2023-05-16T06:13:04.728Z,15.96
2023-05-16T06:14:07.526Z,15.95
2023-05-16T06:15:12.050Z,15.94
2023-05-16T06:16:14.968Z,15.94
2023-05-16T06:17:18.958Z,15.92
2023-05-16T06:18:23.328Z,15.90
2023-05-16T06:19:28.253Z,15.88
2023-05-16T06:20:35.072Z,15.83
2023-05-16T06:21:42.036Z,15.81
2023-05-16T06:22:47.074Z,15.75
2023-05-16T06:23:52.139Z,15.73
2023-05-16T06:24:57.849Z,15.69
2023-05-16T06:26:03.810Z,15.63
2023-05-16T06:27:08.206Z,15.60
2023-05-16T06:28:12.970Z,15.56
2023-05-16T06:29:18.039Z,15.48
2023-05-16T06:30:23.601Z,15.34
2023-05-16T06:31:27.435Z,15.20
2023-05-16T06:32:34.216Z,15.10
2023-05-16T06:33:39.662Z,14.98
2023-05-16T06:34:44.436Z,14.84
2023-05-16T06:35:48.893Z,14.73
2023-05-16T06:36:53.569Z,14.63
2023-05-16T06:37:56.282Z,14.56
2023-05-16T06:39:00.450Z,14.50
2023-05-16T06:40:07.073Z,14.47
2023-05-16T06:41:11.158Z,14.42
2023-05-16T06:42:13.936Z,14.38
2023-05-16T06:43:18.325Z,14.36
2023-05-16T06:44:22.361Z,14.35
2023-05-16T06:45:26.595Z,14.34
2023-05-16T06:46:29.781Z,14.32
2023-05-16T06:47:34.160Z,14.31
2023-05-16T06:48:37.803Z,14.29
2023-05-16T06:49:41.535Z,14.28
2023-05-16T06:50:48.246Z,14.26
2023-05-16T06:51:52.404Z,14.23
2023-05-16T06:52:56.110Z,14.21
2023-05-16T06:53:59.964Z,14.19
2023-05-16T06:55:06.810Z,14.17
2023-05-16T06:56:09.716Z,14.16
2023-05-16T06:57:14.884Z,14.15
2023-05-16T06:58:19.024Z,14.13
2023-05-16T06:59:23.015Z,14.09
2023-05-16T07:00:27.643Z,14.06
2023-05-16T07:01:30.565Z,14.03
2023-05-16T07:02:34.677Z,14.02
2023-05-16T07:03:37.871Z,13.99
2023-05-16T07:04:43.200Z,13.96
2023-05-16T07:05:46.421Z,13.92
2023-05-16T07:06:50.547Z,13.91
2023-05-16T07:07:53.562Z,13.89
2023-05-16T07:08:57.613Z,13.90
2023-05-16T07:10:01.995Z,13.88
2023-05-16T07:11:07.088Z,13.87
2023-05-16T07:12:11.344Z,13.85
2023-05-16T07:13:16.325Z,13.85
2023-05-16T07:14:19.311Z,13.84
2023-05-16T07:15:23.567Z,13.84
2023-05-16T07:16:28.706Z,13.84
2023-05-16T07:17:33.255Z,13.83
2023-05-16T07:18:37.816Z,13.80
2023-05-16T07:19:42.205Z,13.80
2023-05-16T07:20:46.314Z,13.82
2023-05-16T07:21:49.806Z,13.82
2023-05-16T07:22:53.856Z,13.84
2023-05-16T07:23:57.032Z,13.85
2023-05-16T07:25:01.740Z,13.87
2023-05-16T07:26:06.713Z,13.88
2023-05-16T07:27:10.881Z,13.90
2023-05-16T07:28:15.577Z,13.93
2023-05-16T07:29:19.427Z,13.95
2023-05-16T07:30:23.972Z,13.98
2023-05-16T07:31:28.304Z,13.99
2023-05-16T07:32:31.924Z,14.00
2023-05-16T07:33:36.134Z,14.01
2023-05-16T07:34:39.861Z,14.06
2023-05-16T07:35:43.140Z,14.09
2023-05-16T07:36:46.911Z,14.13
2023-05-16T07:37:49.894Z,14.15
2023-05-16T07:38:53.383Z,14.15
2023-05-16T07:39:56.948Z,14.16
2023-05-16T07:41:00.725Z,14.20
2023-05-16T07:42:05.890Z,14.23
2023-05-16T07:43:10.088Z,14.24
2023-05-16T07:44:14.064Z,14.29
2023-05-16T07:45:19.419Z,14.30
2023-05-16T07:46:23.610Z,14.32
2023-05-16T07:47:27.278Z,14.34
2023-05-16T07:48:31.548Z,14.36
2023-05-16T07:49:35.826Z,14.39
2023-05-16T07:50:38.935Z,14.42
2023-05-16T07:51:43.027Z,14.44
2023-05-16T07:52:45.978Z,14.47
2023-05-16T07:53:49.879Z,14.50
2023-05-16T07:54:52.824Z,14.53
2023-05-16T07:55:57.060Z,14.55
2023-05-16T07:57:01.628Z,14.59
2023-05-16T07:58:06.754Z,14.63
2023-05-16T07:59:10.394Z,14.64
2023-05-16T08:00:15.012Z,14.67
2023-05-16T08:01:19.323Z,14.71
2023-05-16T08:02:25.974Z,14.74
2023-05-16T08:03:29.958Z,14.76
2023-05-16T08:04:33.325Z,14.77
2023-05-16T08:05:37.142Z,14.75
2023-05-16T08:06:41.013Z,14.77
2023-05-16T08:07:44.838Z,14.78
2023-05-16T08:08:48.503Z,14.79
2023-05-16T08:09:52.097Z,14.81
2023-05-16T08:10:56.005Z,14.82
2023-05-16T08:12:03.559Z,14.80
2023-05-16T08:13:10.303Z,14.81
2023-05-16T08:14:14.622Z,14.79
2023-05-16T08:15:18.399Z,14.79
2023-05-16T08:16:21.751Z,14.78
2023-05-16T08:17:25.892Z,14.78
2023-05-16T08:18:28.812Z,14.79
2023-05-16T08:19:33.204Z,14.79
2023-05-16T08:20:36.702Z,14.78
2023-05-16T08:21:40.907Z,14.80
2023-05-16T08:22:45.106Z,14.81
2023-05-16T08:23:49.471Z,14.82
2023-05-16T08:24:52.214Z,14.82
2023-05-16T08:25:55.843Z,14.83
2023-05-16T08:26:58.734Z,14.85
2023-05-16T08:28:03.406Z,14.87
2023-05-16T08:29:09.195Z,14.89
2023-05-16T08:30:13.504Z,14.93
2023-05-16T08:31:17.707Z,14.94
2023-05-16T08:32:20.572Z,14.97
2023-05-16T08:33:24.753Z,14.99
2023-05-16T08:34:27.880Z,15.03
2023-05-16T08:35:31.696Z,15.06
2023-05-16T08:36:36.682Z,15.07
2023-05-16T08:37:40.508Z,15.09
2023-05-16T08:38:43.569Z,15.10
2023-05-16T08:39:47.731Z,15.13
2023-05-16T08:40:50.984Z,15.15
2023-05-16T08:41:54.831Z,15.17
2023-05-16T08:43:00.065Z,15.20
2023-05-16T08:44:03.633Z,15.20
2023-05-16T08:45:10.383Z,15.23
2023-05-16T08:46:13.642Z,15.26
2023-05-16T08:47:22.233Z,15.29
2023-05-16T08:48:29.058Z,15.31
2023-05-16T08:49:33.844Z,15.33
2023-05-16T08:50:38.163Z,15.38
2023-05-16T08:51:42.452Z,15.41
2023-05-16T08:52:51.640Z,15.44
2023-05-16T08:54:03.235Z,15.48
2023-05-16T08:55:11.719Z,15.51
2023-05-16T08:56:18.013Z,15.56
2023-05-16T08:57:22.198Z,15.59
2023-05-16T08:58:26.940Z,15.64
2023-05-16T08:59:31.498Z,15.71
2023-05-16T09:00:36.365Z,15.77
2023-05-16T09:01:40.697Z,15.82
2023-05-16T09:02:44.931Z,15.88
2023-05-16T09:03:50.071Z,15.95
2023-05-16T09:04:55.968Z,16.03
2023-05-16T09:06:00.198Z,16.08
2023-05-16T09:07:05.604Z,16.15
2023-05-16T09:08:08.563Z,16.24
2023-05-16T09:09:14.698Z,16.34
2023-05-16T09:10:19.371Z,16.42
2023-05-16T09:11:22.468Z,16.50
2023-05-16T09:12:27.485Z,16.58
2023-05-16T09:13:30.496Z,16.65
2023-05-16T09:14:35.585Z,16.73
2023-05-16T09:15:41.282Z,16.81
2023-05-16T09:16:46.826Z,16.90
2023-05-16T09:17:50.996Z,17.00
2023-05-16T09:18:57.370Z,17.14
2023-05-16T09:20:00.937Z,17.26
2023-05-16T09:21:05.773Z,17.37
2023-05-16T09:22:11.563Z,17.50
2023-05-16T09:23:15.710Z,17.59
2023-05-16T09:24:27.037Z,17.63
2023-05-16T09:25:32.937Z,17.58
2023-05-16T09:26:37.766Z,17.54
2023-05-16T09:27:42.614Z,17.50
2023-05-16T09:28:46.484Z,17.48
2023-05-16T09:29:52.355Z,17.47
2023-05-16T09:30:59.552Z,17.48
2023-05-16T09:32:10.371Z,17.50
2023-05-16T09:33:15.778Z,17.54
2023-05-16T09:34:24.548Z,17.61
2023-05-16T09:35:43.002Z,17.69
2023-05-16T09:36:48.653Z,17.80
2023-05-16T09:37:53.458Z,17.94
2023-05-16T09:38:57.503Z,18.05
2023-05-16T09:40:01.200Z,18.12
2023-05-16T09:41:05.442Z,18.16
2023-05-16T09:42:12.977Z,18.18
2023-05-16T09:43:18.660Z,18.18
2023-05-16T09:44:22.978Z,18.14
2023-05-16T09:45:28.302Z,18.15
2023-05-16T09:46:36.464Z,18.13
2023-05-16T09:47:46.339Z,18.10
2023-05-16T09:48:50.675Z,18.09
2023-05-16T09:49:54.428Z,18.09
2023-05-16T09:51:03.633Z,18.10
2023-05-16T09:52:07.769Z,18.08
2023-05-16T09:53:10.760Z,18.06
2023-05-16T09:54:15.167Z,18.02
2023-05-16T09:55:18.609Z,17.99
2023-05-16T09:56:22.971Z,17.94
2023-05-16T09:57:27.274Z,17.93
2023-05-16T09:58:33.163Z,17.92
2023-05-16T09:59:41.024Z,17.92
2023-05-16T10:00:43.848Z,17.93
2023-05-16T10:01:51.672Z,17.97
2023-05-16T10:02:58.397Z,17.97
2023-05-16T10:04:02.514Z,18.00
2023-05-16T10:05:06.189Z,18.03
2023-05-16T10:06:10.613Z,18.07
2023-05-16T10:07:16.078Z,18.05
2023-05-16T10:08:22.647Z,18.04
2023-05-16T10:09:26.695Z,18.04
2023-05-16T10:10:31.720Z,18.05
2023-05-16T10:11:36.087Z,18.06
2023-05-16T10:12:40.942Z,18.07
2023-05-16T10:13:50.609Z,18.08
2023-05-16T10:14:54.788Z,18.05
2023-05-16T10:16:00.529Z,18.04
2023-05-16T10:17:07.952Z,18.02
2023-05-16T10:18:13.534Z,18.01
2023-05-16T10:19:18.655Z,18.02
2023-05-16T10:20:21.974Z,18.03
2023-05-16T10:21:27.836Z,18.03
2023-05-16T10:22:36.129Z,18.07
2023-05-16T10:23:42.765Z,18.10
2023-05-16T10:24:53.886Z,18.12
2023-05-16T10:25:59.508Z,18.15
2023-05-16T10:27:03.690Z,18.17
2023-05-16T10:28:10.648Z,18.20
2023-05-16T10:29:16.893Z,18.23
2023-05-16T10:30:20.715Z,18.28
2023-05-16T10:31:25.992Z,18.34
2023-05-16T10:32:31.084Z,18.37
2023-05-16T10:33:39.202Z,18.41
2023-05-16T10:34:45.292Z,18.45
2023-05-16T10:35:50.043Z,18.49
2023-05-16T10:36:54.819Z,18.51
2023-05-16T10:37:59.976Z,18.54
2023-05-16T10:39:06.069Z,18.58
2023-05-16T10:40:10.179Z,18.66
2023-05-16T10:41:15.252Z,18.72
2023-05-16T10:42:20.874Z,18.80
2023-05-16T10:43:27.486Z,18.85
2023-05-16T10:44:34.841Z,18.92
2023-05-16T10:45:43.238Z,18.99
2023-05-16T10:46:49.305Z,19.06
2023-05-16T10:47:54.801Z,19.12
2023-05-16T10:48:59.162Z,19.15
2023-05-16T10:50:03.508Z,19.18
2023-05-16T10:51:37.439Z,19.17
2023-05-16T10:52:40.532Z,19.18
2023-05-16T10:53:45.943Z,19.25
2023-05-16T10:54:52.070Z,19.33
2023-05-16T10:56:13.495Z,19.37
2023-05-16T10:57:22.160Z,19.46
2023-05-16T10:58:26.423Z,19.55
2023-05-16T10:59:30.790Z,19.72
2023-05-16T11:00:33.443Z,19.84
2023-05-16T11:01:38.150Z,19.93
2023-05-16T11:02:42.465Z,19.99
2023-05-16T11:04:10.496Z,19.99
2023-05-16T11:05:19.207Z,19.98
2023-05-16T11:06:24.822Z,19.93
2023-05-16T11:07:34.614Z,19.87
2023-05-16T11:08:37.417Z,19.83
2023-05-16T11:09:45.910Z,19.77
2023-05-16T11:10:50.119Z,19.68
2023-05-16T11:11:59.731Z,19.61
2023-05-16T11:13:10.339Z,19.52
2023-05-16T11:14:23.527Z,19.39
2023-05-16T11:15:29.937Z,19.25
2023-05-16T11:16:35.151Z,19.13
2023-05-16T11:17:44.081Z,19.02
2023-05-16T11:18:52.579Z,18.92
2023-05-16T11:20:00.279Z,18.82
2023-05-16T11:21:05.964Z,18.73
2023-05-16T11:22:10.484Z,18.61
2023-05-16T11:23:21.542Z,18.49
2023-05-16T11:24:32.840Z,18.36
2023-05-16T11:25:41.307Z,18.30
2023-05-16T11:26:44.318Z,18.20
2023-05-16T11:27:49.318Z,18.17
2023-05-16T11:28:55.805Z,18.14
2023-05-16T11:30:12.164Z,18.10
2023-05-16T11:31:17.374Z,18.02
2023-05-16T11:32:22.148Z,17.94
2023-05-16T11:33:26.201Z,17.86
2023-05-16T11:34:30.065Z,17.81
2023-05-16T11:35:35.149Z,17.77
2023-05-16T11:36:41.151Z,17.75
2023-05-16T11:37:45.677Z,17.75
2023-05-16T11:38:48.721Z,17.77
2023-05-16T11:39:52.849Z,17.76
2023-05-16T11:41:01.888Z,17.78
2023-05-16T11:42:05.960Z,17.77
2023-05-16T11:43:09.777Z,17.77
2023-05-16T11:44:12.784Z,17.78
2023-05-16T11:45:19.300Z,17.80
2023-05-16T11:46:23.517Z,17.80
2023-05-16T11:47:28.217Z,17.82
2023-05-16T11:48:36.676Z,17.82
2023-05-16T11:49:41.800Z,17.82
2023-05-16T11:50:45.913Z,17.83
2023-05-16T11:51:49.994Z,17.86
2023-05-16T11:52:58.079Z,17.88
2023-05-16T11:54:05.344Z,17.88
2023-05-16T11:55:11.372Z,17.91
2023-05-16T11:56:15.252Z,17.92
2023-05-16T11:57:19.871Z,17.95
2023-05-16T11:58:24.167Z,17.97
2023-05-16T11:59:28.064Z,17.99
2023-05-16T12:00:31.221Z,18.00
2023-05-16T12:01:37.553Z,18.01
2023-05-16T12:02:40.438Z,18.04
2023-05-16T12:03:44.534Z,18.05
2023-05-16T12:04:50.687Z,18.05
2023-05-16T12:05:57.515Z,18.06
2023-05-16T12:07:01.850Z,18.05
2023-05-16T12:08:06.922Z,18.05
2023-05-16T12:09:18.181Z,18.06
2023-05-16T12:10:23.213Z,18.04
2023-05-16T12:11:26.245Z,18.07
2023-05-16T12:12:31.368Z,18.11
2023-05-16T12:13:35.724Z,18.14
2023-05-16T12:14:39.830Z,18.19
2023-05-16T12:15:43.517Z,18.23
2023-05-16T12:16:49.553Z,18.22
2023-05-16T12:17:53.891Z,18.17
2023-05-16T12:18:58.080Z,18.11
2023-05-16T12:20:02.437Z,18.12
2023-05-16T12:21:08.193Z,18.14
2023-05-16T12:22:18.854Z,18.13
2023-05-16T12:23:22.782Z,18.15
2023-05-16T12:24:32.400Z,18.19
2023-05-16T12:25:38.017Z,18.21
2023-05-16T12:26:44.828Z,18.21
2023-05-16T12:27:47.601Z,18.24
2023-05-16T12:28:57.792Z,18.28
2023-05-16T12:30:01.902Z,18.31
2023-05-16T12:31:06.689Z,18.34
2023-05-16T12:32:11.987Z,18.38
2023-05-16T12:33:17.389Z,18.42
2023-05-16T12:34:23.488Z,18.43
2023-05-16T12:35:31.101Z,18.45
2023-05-16T12:36:37.115Z,18.45
2023-05-16T12:37:39.796Z,18.46
2023-05-16T12:38:47.853Z,18.46
2023-05-16T12:39:53.090Z,18.46
2023-05-16T12:41:00.583Z,18.48
2023-05-16T12:42:09.765Z,18.50
2023-05-16T12:43:17.966Z,18.51
2023-05-16T12:44:23.763Z,18.53
2023-05-16T12:45:28.437Z,18.53
2023-05-16T12:46:33.516Z,18.53
2023-05-16T12:47:39.473Z,18.53
2023-05-16T12:48:44.481Z,18.52
2023-05-16T12:49:48.345Z,18.49
2023-05-16T12:50:53.646Z,18.48
2023-05-16T12:52:06.105Z,18.47
2023-05-16T12:53:14.212Z,18.47
2023-05-16T12:54:18.796Z,18.47
2023-05-16T12:55:24.441Z,18.46
2023-05-16T12:56:28.998Z,18.47
2023-05-16T12:57:35.099Z,18.47
2023-05-16T12:58:42.077Z,18.44
2023-05-16T12:59:46.274Z,18.43
2023-05-16T13:00:50.394Z,18.42
2023-05-16T13:01:53.311Z,18.44
2023-05-16T13:02:57.378Z,18.44
2023-05-16T13:04:02.445Z,18.44
2023-05-16T13:05:07.520Z,18.44
2023-05-16T13:06:11.223Z,18.40
2023-05-16T13:07:17.830Z,18.36
2023-05-16T13:08:22.235Z,18.32
2023-05-16T13:09:28.377Z,18.30
2023-05-16T13:10:36.470Z,18.27
2023-05-16T13:11:40.587Z,18.26
2023-05-16T13:12:43.574Z,18.27
2023-05-16T13:13:47.451Z,18.28
2023-05-16T13:14:50.667Z,18.31
2023-05-16T13:15:55.604Z,18.32
2023-05-16T13:16:59.693Z,18.33
2023-05-16T13:18:03.080Z,18.35
2023-05-16T13:19:08.167Z,18.36
2023-05-16T13:20:15.349Z,18.37
2023-05-16T13:21:19.585Z,18.39
2023-05-16T13:22:24.702Z,18.42
2023-05-16T13:23:28.809Z,18.41
2023-05-16T13:24:33.732Z,18.40
2023-05-16T13:25:37.463Z,18.41
2023-05-16T13:26:41.984Z,18.40
2023-05-16T13:27:46.501Z,18.40
2023-05-16T13:28:53.313Z,18.41
2023-05-16T13:29:57.158Z,18.41
2023-05-16T13:31:00.838Z,18.45
2023-05-16T13:32:05.206Z,18.46
2023-05-16T13:33:09.765Z,18.49
2023-05-16T13:34:12.615Z,18.51
2023-05-16T13:35:16.409Z,18.56
2023-05-16T13:36:19.814Z,18.59
2023-05-16T13:37:26.337Z,18.64
2023-05-16T13:38:31.562Z,18.67
2023-05-16T13:39:35.362Z,18.69
2023-05-16T13:40:41.156Z,18.71
2023-05-16T13:41:45.935Z,18.73
2023-05-16T13:42:51.830Z,18.76
2023-05-16T13:43:56.716Z,18.79
2023-05-16T13:45:01.612Z,18.81
2023-05-16T13:46:04.645Z,18.85
2023-05-16T13:47:10.709Z,18.88
2023-05-16T13:48:14.040Z,18.93
2023-05-16T13:49:18.106Z,18.98
2023-05-16T13:50:22.233Z,19.01
2023-05-16T13:51:28.596Z,19.05
2023-05-16T13:52:36.408Z,19.06
2023-05-16T13:53:41.012Z,19.07
2023-05-16T13:54:45.052Z,19.09
2023-05-16T13:55:50.128Z,19.09
2023-05-16T13:56:53.747Z,19.08
2023-05-16T13:57:58.594Z,19.06
2023-05-16T13:59:06.538Z,19.04